Time;durP1;ratioP1;P1;durP2;ratioP2;P2;SDS_P1;SDS_P2;PMS_P1;PMS_P2;Temp;Humidity;BMP_temperature;BMP_pressure;BME280_temperature;BME280_humidity;BME280_pressure;Samples;Min_cycle;Max_cycle;Signal;HPM_P1;HPM_P2
2023/08/04 00:01:15;;;;;;;;;;;;;;;14.14;97.71;95964.69;5081742;28;20221;-68
2023/08/04 00:03:41;;;;;;;;;;;;;;;14.11;98.00;95966.00;5066104;28;19939;-69
2023/08/04 00:06:08;;;;;;;;;;;;;;;14.08;98.21;95961.22;5066117;28;20122;-69
2023/08/04 00:08:34;;;;;;;;;;;;;;;14.05;98.01;95956.47;5066902;28;20233;-74
2023/08/04 00:11:01;;;;;;;;;;;;;;;14.02;98.45;95963.00;5066081;28;20001;-74
2023/08/04 00:13:26;;;;;;;;;;;;;;;14.00;98.45;95961.69;5065984;28;19991;-74
2023/08/04 00:15:52;;;;;;;;;;;;;;;13.98;99.11;95980.41;5065886;28;19949;-73
2023/08/04 00:18:18;;;;;;;;;;;;;;;13.96;98.81;95979.03;5065874;28;20224;-74
2023/08/04 00:20:44;;;;;;;;;;;;;;;13.92;98.44;95973.50;5066619;28;20126;-73
2023/08/04 00:23:10;;;;;;;;;;;;;;;13.90;98.81;95975.59;5066447;28;20212;-72
2023/08/04 00:25:35;;;;;;;;;;;;;;;13.86;98.73;95979.75;5065709;28;19936;-71
2023/08/04 00:28:01;;;;;;;;;;;;;;;13.82;98.61;95973.41;5065596;28;19993;-69
2023/08/04 00:30:27;;;;;;;;;;;;;;;13.80;98.58;95972.84;5065635;28;20004;-68
2023/08/04 00:32:53;;;;;;;;;;;;;;;13.77;98.96;95971.53;5081195;28;19980;-69
2023/08/04 00:35:19;;;;;;;;;;;;;;;13.75;99.34;95972.78;5065548;28;20113;-68
2023/08/04 00:37:45;;;;;;;;;;;;;;;13.70;99.36;95978.81;5065503;28;19995;-69
2023/08/04 00:40:11;;;;;;;;;;;;;;;13.66;99.63;95976.94;5065458;28;20004;-69
2023/08/04 00:42:37;;;;;;;;;;;;;;;13.62;99.89;95976.63;5065396;28;19935;-69
2023/08/04 00:45:04;;;;;;;;;;;;;;;13.59;99.96;95987.66;5065332;28;19939;-69
2023/08/04 00:47:35;;;;;;;;;;;;;;;13.55;99.87;95989.22;5064527;28;19936;-70
2023/08/04 00:50:06;;;;;;;;;;;;;;;13.52;99.72;95982.59;5065765;28;19961;-69
2023/08/04 00:52:31;;;;;;;;;;;;;;;13.49;99.75;95988.34;5065697;28;19944;-70
2023/08/04 00:54:57;;;;;;;;;;;;;;;13.47;100.00;95994.91;5065163;28;19939;-69
2023/08/04 00:57:23;;;;;;;;;;;;;;;13.44;100.00;95995.38;5065419;28;19957;-70
2023/08/04 00:59:51;;;;;;;;;;;;;;;13.40;100.00;96001.16;5065078;28;20153;-69
2023/08/04 01:02:18;;;;;;;;;;;;;;;13.38;99.65;95994.56;5065529;28;19944;-69
2023/08/04 01:04:44;;;;;;;;;;;;;;;13.37;99.48;95992.94;5064961;28;19933;-69
2023/08/04 01:07:23;;;;;;;;;;;;;;;13.34;99.77;95994.25;5064938;28;19972;-69
2023/08/04 01:10:08;;;;;;;;;;;;;;;13.34;100.00;96001.34;5064605;28;19952;-69
2023/08/04 01:12:39;;;;;;;;;;;;;;;13.35;100.00;96001.09;5064844;28;19937;-70
2023/08/04 01:15:06;;;;;;;;;;;;;;;13.34;100.00;95998.72;5064827;28;19936;-69
2023/08/04 01:17:32;;;;;;;;;;;;;;;13.34;100.00;95998.72;5065594;28;20078;-70
2023/08/04 01:19:58;;;;;;;;;;;;;;;13.33;100.00;95992.66;5065570;28;20121;-69
2023/08/04 01:22:25;;;;;;;;;;;;;;;13.33;100.00;95983.94;5064695;28;19936;-69
2023/08/04 01:24:51;;;;;;;;;;;;;;;13.31;100.00;95993.94;5064984;28;19937;-68
2023/08/04 01:27:21;;;;;;;;;;;;;;;13.30;100.00;95985.25;5064601;28;19942;-69
2023/08/04 01:29:47;;;;;;;;;;;;;;;13.25;100.00;95982.53;5064452;28;20219;-69
2023/08/04 01:32:13;;;;;;;;;;;;;;;13.27;100.00;95987.53;5064491;28;20002;-69
2023/08/04 01:34:41;;;;;;;;;;;;;;;13.25;100.00;95982.53;5064482;28;19940;-70
2023/08/04 01:37:08;;;;;;;;;;;;;;;13.26;100.00;95993.84;5064420;28;19938;-69
2023/08/04 01:39:34;;;;;;;;;;;;;;;13.25;100.00;95990.44;5065210;28;20119;-70
2023/08/04 01:42:00;;;;;;;;;;;;;;;13.25;100.00;95984.34;5064355;28;19937;-69
2023/08/04 01:44:26;;;;;;;;;;;;;;;13.25;100.00;95976.44;5065135;28;20099;-69
2023/08/04 01:46:52;;;;;;;;;;;;;;;13.25;100.00;95972.00;5064510;28;19943;-69
2023/08/04 01:49:18;;;;;;;;;;;;;;;13.27;100.00;95972.56;5064712;28;20203;-69
2023/08/04 01:51:43;;;;;;;;;;;;;;;13.29;100.00;95972.31;5064755;28;19973;-69
2023/08/04 01:54:09;;;;;;;;;;;;;;;13.30;100.00;95973.91;5064226;28;19935;-69
2023/08/04 01:56:35;;;;;;;;;;;;;;;13.31;100.00;95963.16;5063993;28;19955;-67
2023/08/04 01:59:01;;;;;;;;;;;;;;;13.32;100.00;95967.38;5063947;28;19974;-66
2023/08/04 02:01:27;;;;;;;;;;;;;;;13.34;100.00;95957.38;5064154;28;20279;-66
2023/08/04 02:03:52;;;;;;;;;;;;;;;13.35;100.00;95969.50;5064898;28;20247;-67
2023/08/04 02:06:18;;;;;;;;;;;;;;;13.37;100.00;95966.63;5064030;28;19948;-66
2023/08/04 02:08:44;;;;;;;;;;;;;;;13.37;100.00;95961.34;5079597;28;19952;-67
2023/08/04 02:11:10;;;;;;;;;;;;;;;13.38;100.00;95962.97;5064014;28;19944;-66
2023/08/04 02:13:36;;;;;;;;;;;;;;;13.37;100.00;95970.03;5063953;28;19933;-67
2023/08/04 02:16:02;;;;;;;;;;;;;;;13.38;100.00;95971.66;5063964;28;19985;-73
2023/08/04 02:18:28;;;;;;;;;;;;;;;13.36;100.00;95965.81;5062903;28;19931;-72
2023/08/04 02:20:54;;;;;;;;;;;;;;;13.37;100.00;95963.97;5063897;28;19990;-73
2023/08/04 02:23:20;;;;;;;;;;;;;;;13.37;100.00;95962.13;5063911;28;19942;-72
2023/08/04 02:25:45;;;;;;;;;;;;;;;13.40;100.00;95963.50;5064350;28;19935;-72
2023/08/04 02:28:11;;;;;;;;;;;;;;;13.42;100.00;95961.41;5079389;28;19961;-72
2023/08/04 02:30:37;;;;;;;;;;;;;;;13.42;100.00;95947.44;5064108;28;19941;-73
2023/08/04 02:33:03;;;;;;;;;;;;;;;13.43;100.00;95957.72;5064365;28;19957;-72
2023/08/04 02:35:29;;;;;;;;;;;;;;;13.43;100.00;95954.31;5063867;28;20277;-72
2023/08/04 02:37:54;;;;;;;;;;;;;;;13.44;100.00;95950.63;5079894;28;19965;-72
2023/08/04 02:40:21;;;;;;;;;;;;;;;13.45;100.00;95955.63;5064538;28;20007;-72
2023/08/04 02:42:46;;;;;;;;;;;;;;;13.47;100.00;95956.19;5062569;28;19944;-73
2023/08/04 02:45:12;;;;;;;;;;;;;;;13.47;100.00;95950.13;5063654;28;20023;-72
2023/08/04 02:47:38;;;;;;;;;;;;;;;13.40;100.00;95956.38;5063650;28;20231;-72
2023/08/04 02:50:05;;;;;;;;;;;;;;;13.38;100.00;95955.06;5063554;28;19967;-72
2023/08/04 02:52:30;;;;;;;;;;;;;;;13.36;100.00;95954.50;5063680;28;19941;-69
2023/08/04 02:54:56;;;;;;;;;;;;;;;13.37;100.00;95950.81;5064135;28;19947;-69
2023/08/04 02:57:22;;;;;;;;;;;;;;;13.36;100.00;95952.66;5063410;28;19958;-68
2023/08/04 02:59:48;;;;;;;;;;;;;;;13.36;100.00;95952.66;5063602;28;19945;-69
2023/08/04 03:02:14;;;;;;;;;;;;;;;13.34;100.00;95961.84;5063500;28;19937;-69
2023/08/04 03:04:39;;;;;;;;;;;;;;;13.31;100.00;95960.50;5063786;28;19936;-70
2023/08/04 03:07:06;;;;;;;;;;;;;;;13.30;100.00;95956.28;5063506;28;19947;-69
2023/08/04 03:09:32;;;;;;;;;;;;;;;13.30;100.00;95961.53;5064567;28;19957;-69
2023/08/04 03:11:57;;;;;;;;;;;;;;;13.27;100.00;95948.03;5067198;28;19939;-74
2023/08/04 03:14:23;;;;;;;;;;;;;;;13.25;100.00;95955.38;5082949;28;19938;-67
2023/08/04 03:16:49;;;;;;;;;;;;;;;13.23;100.00;95950.38;5067547;28;19945;-67
2023/08/04 03:19:17;;;;;;;;;;;;;;;13.22;100.00;95954.06;5066943;28;19945;-67
2023/08/04 03:21:43;;;;;;;;;;;;;;;13.22;100.00;95963.78;5066872;28;19941;-68
2023/08/04 03:24:09;;;;;;;;;;;;;;;13.23;100.00;95962.72;5067163;28;19936;-67
2023/08/04 03:26:35;;;;;;;;;;;;;;;13.22;100.00;95956.69;5066822;28;19941;-68
2023/08/04 03:29:01;;;;;;;;;;;;;;;13.24;100.00;95948.53;5067515;28;20147;-67
2023/08/04 03:31:27;;;;;;;;;;;;;;;13.26;100.00;95951.72;5066760;28;19939;-72
2023/08/04 03:33:53;;;;;;;;;;;;;;;13.26;100.00;95952.50;5067522;28;19937;-72
2023/08/04 03:36:19;;;;;;;;;;;;;;;13.27;100.00;95954.13;5066969;28;19942;-72
2023/08/04 03:38:44;;;;;;;;;;;;;;;13.29;100.00;95967.06;5066699;28;19950;-73
2023/08/04 03:41:10;;;;;;;;;;;;;;;13.31;100.00;95972.88;5067403;28;19946;-72
2023/08/04 03:43:36;;;;;;;;;;;;;;;13.31;100.00;95970.22;5066447;28;20153;-73
2023/08/04 03:46:02;;;;;;;;;;;;;;;13.31;100.00;95962.34;5066431;28;19945;-67
2023/08/04 03:48:28;;;;;;;;;;;;;;;13.32;100.00;95964.72;5066400;28;19956;-69
2023/08/04 03:50:53;;;;;;;;;;;;;;;13.33;100.00;95960.25;5066366;28;19948;-74
2023/08/04 03:53:19;;;;;;;;;;;;;;;13.34;100.00;95957.38;5066367;28;19944;-74
2023/08/04 03:55:45;;;;;;;;;;;;;;;13.35;100.00;95956.31;5066252;28;19948;-74
2023/08/04 03:58:11;;;;;;;;;;;;;;;13.37;100.00;95956.09;5066454;28;20316;-74
2023/08/04 04:00:37;;;;;;;;;;;;;;;13.37;100.00;95963.97;5066154;28;20289;-74
2023/08/04 04:03:04;;;;;;;;;;;;;;;13.37;100.00;95959.50;5066194;28;19939;-74
2023/08/04 04:05:30;;;;;;;;;;;;;;;13.37;100.00;95958.72;5066135;28;19940;-68
2023/08/04 04:07:56;;;;;;;;;;;;;;;13.36;100.00;95960.56;5066041;28;19941;-69
2023/08/04 04:10:22;;;;;;;;;;;;;;;13.36;100.00;95957.94;5066012;28;20014;-69
2023/08/04 04:12:48;;;;;;;;;;;;;;;13.34;100.00;95960.00;5066719;28;19943;-70
2023/08/04 04:15:14;;;;;;;;;;;;;;;13.34;100.00;95964.50;5065915;28;19943;-69
2023/08/04 04:17:39;;;;;;;;;;;;;;;13.33;100.00;95970.78;5065874;28;19997;-70
2023/08/04 04:20:06;;;;;;;;;;;;;;;13.32;100.00;95963.94;5065591;28;19986;-69
2023/08/04 04:22:33;;;;;;;;;;;;;;;13.30;100.00;95968.66;5064920;28;20235;-69
2023/08/04 04:25:00;;;;;;;;;;;;;;;13.29;100.00;95972.31;5066573;28;19944;-66
2023/08/04 04:27:26;;;;;;;;;;;;;;;13.24;100.00;95965.13;5066203;28;20112;-69
2023/08/04 04:29:52;;;;;;;;;;;;;;;13.23;100.00;95970.63;5066067;28;19958;-69
2023/08/04 04:32:17;;;;;;;;;;;;;;;13.20;100.00;95964.03;5065483;28;20001;-69
2023/08/04 04:34:43;;;;;;;;;;;;;;;13.18;100.00;95968.75;5065536;28;19939;-69
2023/08/04 04:37:09;;;;;;;;;;;;;;;13.15;100.00;95966.63;5065456;28;20149;-69
2023/08/04 04:39:35;;;;;;;;;;;;;;;13.10;100.00;95958.63;5065383;28;19980;-70
2023/08/04 04:42:02;;;;;;;;;;;;;;;13.05;100.00;95974.38;5065065;28;19946;-72
2023/08/04 04:44:28;;;;;;;;;;;;;;;13.05;100.00;95971.75;5065332;28;19934;-70
2023/08/04 04:46:54;;;;;;;;;;;;;;;13.05;100.00;95972.53;5065770;28;19940;-69
2023/08/04 04:49:20;;;;;;;;;;;;;;;13.06;100.00;95970.69;5066001;28;19950;-69
2023/08/04 04:51:46;;;;;;;;;;;;;;;13.07;100.00;95970.47;5065216;28;20229;-69
2023/08/04 04:54:11;;;;;;;;;;;;;;;13.11;100.00;95976.03;5065173;28;19946;-70
2023/08/04 04:56:37;;;;;;;;;;;;;;;13.13;100.00;95973.97;5065059;28;19955;-70
2023/08/04 04:59:03;;;;;;;;;;;;;;;13.14;100.00;95978.97;5065136;28;19961;-69
2023/08/04 05:01:29;;;;;;;;;;;;;;;13.19;100.00;95986.16;5065584;28;19945;-68
2023/08/04 05:03:55;;;;;;;;;;;;;;;13.22;100.00;95985.66;5080518;28;19942;-73
2023/08/04 05:06:21;;;;;;;;;;;;;;;13.27;100.00;95985.72;5064959;28;19981;-74
2023/08/04 05:08:47;;;;;;;;;;;;;;;13.31;100.00;95988.66;5063690;28;19959;-74
2023/08/04 05:11:13;;;;;;;;;;;;;;;13.35;100.00;95993.19;5064891;28;20011;-74
2023/08/04 05:13:41;;;;;;;;;;;;;;;13.42;100.00;95992.22;5064806;28;19938;-74
2023/08/04 05:16:07;;;;;;;;;;;;;;;13.44;100.00;95988.31;5065540;28;19941;-74
2023/08/04 05:18:33;;;;;;;;;;;;;;;13.50;100.00;96003.13;5064785;28;20259;-73
2023/08/04 05:20:59;;;;;;;;;;;;;;;13.56;100.00;95999.47;5064680;28;19941;-67
2023/08/04 05:23:25;;;;;;;;;;;;;;;13.64;100.00;96010.63;5064577;28;20001;-68
2023/08/04 05:25:51;;;;;;;;;;;;;;;13.70;100.00;96004.38;5064779;28;19944;-67
2023/08/04 05:28:28;;;;;;;;;;;;;;;13.76;100.00;96003.38;5064467;28;19940;-67
2023/08/04 05:30:55;;;;;;;;;;;;;;;13.81;100.00;95996.31;5064522;28;19938;-67
2023/08/04 05:33:21;;;;;;;;;;;;;;;13.86;100.00;95990.31;5064128;28;19939;-67
2023/08/04 05:35:47;;;;;;;;;;;;;;;13.91;100.00;95995.63;5064916;28;19936;-67
2023/08/04 05:38:13;;;;;;;;;;;;;;;13.96;100.00;95981.69;5064867;28;19937;-69
2023/08/04 05:40:41;;;;;;;;;;;;;;;14.04;100.00;95990.97;5064328;28;19938;-69
2023/08/04 05:43:07;;;;;;;;;;;;;;;14.09;100.00;95986.56;5064294;28;19941;-69
2023/08/04 05:45:37;;;;;;;;;;;;;;;14.18;100.00;95990.31;5064283;28;19933;-70
2023/08/04 05:48:03;;;;;;;;;;;;;;;14.30;100.00;95984.06;5064806;28;20112;-70
2023/08/04 05:50:29;;;;;;;;;;;;;;;14.43;100.00;95988.91;5064136;28;20248;-70
2023/08/04 05:52:56;;;;;;;;;;;;;;;14.49;100.00;95985.28;5064397;28;19935;-70
2023/08/04 05:55:22;;;;;;;;;;;;;;;14.52;100.00;95981.31;5064091;28;19938;-69
2023/08/04 05:57:48;;;;;;;;;;;;;;;14.52;100.00;95978.69;5063994;28;19975;-72
2023/08/04 06:00:13;;;;;;;;;;;;;;;14.52;100.00;95981.31;5064412;28;19938;-72
2023/08/04 06:02:41;;;;;;;;;;;;;;;14.49;100.00;95987.09;5064004;28;19936;-73
2023/08/04 06:05:07;;;;;;;;;;;;;;;14.48;100.00;95993.44;5064035;28;19948;-73
2023/08/04 06:07:33;;;;;;;;;;;;;;;14.49;100.00;96000.28;5064017;28;20238;-73
2023/08/04 06:09:59;;;;;;;;;;;;;;;14.51;100.00;96001.66;5062789;28;19966;-73
2023/08/04 06:12:24;;;;;;;;;;;;;;;14.53;100.00;96002.19;5064748;28;20227;-73
2023/08/04 06:14:50;;;;;;;;;;;;;;;14.55;100.00;96001.91;5063941;28;19940;-69
2023/08/04 06:17:16;;;;;;;;;;;;;;;14.57;100.00;96011.22;5063950;28;20260;-69
2023/08/04 06:19:43;;;;;;;;;;;;;;;14.61;100.00;96006.22;5064392;28;19982;-69
2023/08/04 06:22:09;;;;;;;;;;;;;;;14.68;100.00;96000.69;5063859;28;19942;-70
2023/08/04 06:24:35;;;;;;;;;;;;;;;14.70;100.00;96001.25;5063904;28;19935;-70
2023/08/04 06:27:03;;;;;;;;;;;;;;;14.75;100.00;96007.34;5063835;28;19973;-69
2023/08/04 06:29:29;;;;;;;;;;;;;;;14.80;100.00;96002.13;5064271;28;19957;-70
2023/08/04 06:31:55;;;;;;;;;;;;;;;14.85;100.00;96000.56;5064354;28;20248;-67
2023/08/04 06:34:21;;;;;;;;;;;;;;;14.86;100.00;96004.78;5063825;28;19936;-67
2023/08/04 06:36:47;;;;;;;;;;;;;;;14.89;100.00;96007.72;5063717;28;19941;-69
2023/08/04 06:39:13;;;;;;;;;;;;;;;14.93;100.00;96007.97;5063648;28;19940;-69
2023/08/04 06:41:39;;;;;;;;;;;;;;;14.95;100.00;96006.69;5064455;28;20002;-70
2023/08/04 06:44:05;;;;;;;;;;;;;;;14.99;100.00;96012.22;5064761;28;19941;-70
2023/08/04 06:46:31;;;;;;;;;;;;;;;15.01;100.00;96013.59;5067539;28;20007;-70
2023/08/04 06:48:57;;;;;;;;;;;;;;;15.08;100.00;96010.72;5067303;28;19950;-70
2023/08/04 06:51:22;;;;;;;;;;;;;;;15.14;100.00;96012.34;5068029;28;19942;-68
2023/08/04 06:53:48;;;;;;;;;;;;;;;15.30;100.00;96015.81;5067373;28;19942;-68
2023/08/04 06:56:14;;;;;;;;;;;;;;;15.48;100.00;96019.84;5067478;28;20013;-68
2023/08/04 06:58:40;;;;;;;;;;;;;;;15.71;100.00;96013.31;5067444;28;19968;-69
2023/08/04 07:01:06;;;;;;;;;;;;;;;16.03;100.00;96018.41;5067332;28;19951;-68
2023/08/04 07:03:32;;;;;;;;;;;;;;;16.44;100.00;96009.69;5067248;28;19937;-68
2023/08/04 07:05:58;;;;;;;;;;;;;;;16.61;95.66;95989.06;5067978;28;19976;-69
2023/08/04 07:08:24;;;;;;;;;;;;;;;16.57;94.83;95993.28;5066033;28;19944;-67
2023/08/04 07:10:50;;;;;;;;;;;;;;;16.51;95.39;95991.72;5067818;28;20010;-70
2023/08/04 07:13:16;;;;;;;;;;;;;;;16.50;96.22;96000.69;5067069;28;19934;-74
2023/08/04 07:15:52;;;;;;;;;;;;;;;16.61;96.84;96001.50;5067074;28;20134;-75
2023/08/04 07:18:18;;;;;;;;;;;;;;;16.73;97.51;96007.28;5067881;28;19947;-75
2023/08/04 07:20:44;;;;;;;;;;;;;;;16.79;96.85;96002.78;5067497;28;19941;-75
2023/08/04 07:23:10;;;;;;;;;;;;;;;16.82;97.79;96010.22;5066896;28;19937;-76
2023/08/04 07:25:36;;;;;;;;;;;;;;;16.86;97.02;96002.53;5066699;28;19945;-75
2023/08/04 07:28:01;;;;;;;;;;;;;;;16.83;96.15;96009.16;5066664;28;19944;-70
2023/08/04 07:30:27;;;;;;;;;;;;;;;16.75;95.99;96007.03;5066707;28;19963;-68
2023/08/04 07:32:53;;;;;;;;;;;;;;;16.68;96.70;96017.09;5066626;28;19943;-68
2023/08/04 07:35:19;;;;;;;;;;;;;;;16.63;97.63;96025.81;5067442;28;19938;-67
2023/08/04 07:37:45;;;;;;;;;;;;;;;16.58;97.51;96021.34;5066528;28;19938;-67
2023/08/04 07:40:11;;;;;;;;;;;;;;;16.54;96.62;96015.00;5066551;28;20011;-68
2023/08/04 07:42:37;;;;;;;;;;;;;;;16.51;97.24;96020.81;5066473;28;19934;-67
2023/08/04 07:45:03;;;;;;;;;;;;;;;16.52;97.49;96021.59;5081970;28;19960;-67
2023/08/04 07:47:29;;;;;;;;;;;;;;;16.54;97.49;96027.44;5082020;28;19933;-69
2023/08/04 07:49:54;;;;;;;;;;;;;;;16.61;98.31;96026.13;5066281;28;20288;-67
2023/08/04 07:52:20;;;;;;;;;;;;;;;16.66;96.07;96020.00;5081829;28;19937;-67
2023/08/04 07:54:46;;;;;;;;;;;;;;;16.71;96.36;96017.34;5066669;28;20016;-66
2023/08/04 07:57:12;;;;;;;;;;;;;;;16.84;97.05;96022.13;5064930;28;19963;-67
2023/08/04 07:59:38;;;;;;;;;;;;;;;17.05;97.00;96027.41;5066008;28;19966;-67
2023/08/04 08:02:04;;;;;;;;;;;;;;;17.19;93.73;96012.50;5066121;28;20013;-67
2023/08/04 08:04:30;;;;;;;;;;;;;;;17.29;95.05;96024.13;5066072;28;20256;-70
2023/08/04 08:06:55;;;;;;;;;;;;;;;17.37;94.13;96018.28;5066801;28;19956;-69
2023/08/04 08:09:21;;;;;;;;;;;;;;;17.37;92.92;96012.97;5066221;28;19970;-69
2023/08/04 08:11:47;;;;;;;;;;;;;;;17.32;92.24;96011.13;5065916;28;19949;-69
2023/08/04 08:14:13;;;;;;;;;;;;;;;17.29;94.40;96019.63;5065941;28;19942;-69
2023/08/04 08:16:39;;;;;;;;;;;;;;;17.30;94.43;96018.53;5065808;28;19946;-69
2023/08/04 08:19:05;;;;;;;;;;;;;;;17.30;92.89;96002.66;5065793;28;20162;-68
2023/08/04 08:21:31;;;;;;;;;;;;;;;17.30;94.89;96005.28;5066316;28;19943;-68
2023/08/04 08:23:57;;;;;;;;;;;;;;;17.35;94.38;96005.28;5066284;28;20256;-67
2023/08/04 08:26:22;;;;;;;;;;;;;;;17.41;95.12;96008.72;5066457;28;19936;-73
2023/08/04 08:28:48;;;;;;;;;;;;;;;17.44;93.07;95997.56;5065846;28;19935;-74
2023/08/04 08:31:14;;;;;;;;;;;;;;;17.57;93.04;95999.59;5065497;28;19970;-72
2023/08/04 08:33:40;;;;;;;;;;;;;;;17.72;90.70;95980.16;5065571;28;19937;-73
2023/08/04 08:36:06;;;;;;;;;;;;;;;17.91;94.80;96004.25;5065519;28;19941;-72
2023/08/04 08:38:33;;;;;;;;;;;;;;;18.28;92.69;95994.16;5065411;28;19953;-73
2023/08/04 08:40:59;;;;;;;;;;;;;;;18.73;90.47;95981.53;5065341;28;19939;-70
2023/08/04 08:43:25;;;;;;;;;;;;;;;19.13;83.67;95934.34;5065323;28;19985;-71
2023/08/04 08:45:51;;;;;;;;;;;;;;;19.44;84.92;95942.72;5065297;28;19974;-72
2023/08/04 08:48:18;;;;;;;;;;;;;;;19.81;83.20;95935.84;5065800;28;19951;-72
2023/08/04 08:50:47;;;;;;;;;;;;;;;20.06;81.03;95916.81;5065414;28;19961;-72
2023/08/04 08:53:13;;;;;;;;;;;;;;;20.22;80.27;95919.22;5065114;28;19944;-72
2023/08/04 08:55:42;;;;;;;;;;;;;;;20.24;81.25;95936.50;5065040;28;19947;-73
2023/08/04 08:58:09;;;;;;;;;;;;;;;20.21;80.91;95930.97;5064884;28;19974;-72
2023/08/04 09:00:35;;;;;;;;;;;;;;;20.08;80.87;95943.16;5065601;28;19950;-73
2023/08/04 09:03:03;;;;;;;;;;;;;;;19.95;80.67;95938.56;5063832;28;19945;-71
2023/08/04 09:05:30;;;;;;;;;;;;;;;19.84;81.59;95938.75;5064904;28;19947;-70
2023/08/04 09:07:56;;;;;;;;;;;;;;;19.79;82.24;95952.09;5065111;28;20118;-70
2023/08/04 09:10:22;;;;;;;;;;;;;;;19.67;81.52;95949.06;5064805;28;19989;-70
2023/08/04 09:12:48;;;;;;;;;;;;;;;19.48;79.22;95925.91;5064819;28;20140;-70
2023/08/04 09:15:14;;;;;;;;;;;;;;;19.40;81.04;95944.38;5064745;28;19965;-71
2023/08/04 09:17:41;;;;;;;;;;;;;;;19.32;80.98;95947.66;5064747;28;19986;-70
2023/08/04 09:20:08;;;;;;;;;;;;;;;19.27;81.71;95949.31;5064754;28;19944;-70
2023/08/04 09:22:40;;;;;;;;;;;;;;;19.28;84.60;95971.38;5064651;28;19947;-70
2023/08/04 09:25:07;;;;;;;;;;;;;;;19.23;81.70;95950.97;5064636;28;19939;-69
2023/08/04 09:27:34;;;;;;;;;;;;;;;19.17;82.64;95961.94;5064575;28;19985;-70
2023/08/04 09:30:03;;;;;;;;;;;;;;;19.06;83.54;95972.69;5064382;28;19953;-70
2023/08/04 09:32:32;;;;;;;;;;;;;;;18.91;86.09;95996.78;5065010;28;20226;-69
2023/08/04 09:34:58;;;;;;;;;;;;;;;18.74;88.33;96013.13;5064361;28;19936;-70
2023/08/04 09:37:24;;;;;;;;;;;;;;;18.63;90.13;96015.09;5064884;28;19939;-68
2023/08/04 09:39:50;;;;;;;;;;;;;;;18.55;93.26;96039.59;5064546;28;19944;-71
2023/08/04 09:42:18;;;;;;;;;;;;;;;18.49;100.00;96063.81;5064300;28;19937;-72
2023/08/04 09:44:48;;;;;;;;;;;;;;;18.39;96.83;96044.22;5064269;28;19947;-72
2023/08/04 09:47:14;;;;;;;;;;;;;;;18.23;96.27;96032.94;5064806;28;19940;-72
2023/08/04 09:49:40;;;;;;;;;;;;;;;18.14;99.71;96044.41;5064115;28;19965;-72
2023/08/04 09:52:06;;;;;;;;;;;;;;;18.28;100.00;96050.69;5062978;28;19941;-72
2023/08/04 09:54:32;;;;;;;;;;;;;;;18.53;100.00;96030.31;5064686;28;19992;-69
2023/08/04 09:56:58;;;;;;;;;;;;;;;18.86;100.00;96023.41;5064112;28;19982;-72
2023/08/04 09:59:24;;;;;;;;;;;;;;;19.22;100.00;96013.19;5063975;28;20172;-71
2023/08/04 10:01:50;;;;;;;;;;;;;;;19.60;98.11;96007.16;5064872;28;19947;-70
2023/08/04 10:04:16;;;;;;;;;;;;;;;19.80;85.89;95936.91;5064034;28;19938;-70
2023/08/04 10:06:43;;;;;;;;;;;;;;;19.90;94.14;95992.66;5064020;28;19946;-70
2023/08/04 10:09:09;;;;;;;;;;;;;;;19.79;87.60;95961.97;5063938;28;19944;-70
2023/08/04 10:11:35;;;;;;;;;;;;;;;19.71;93.33;96008.63;5064654;28;19958;-70
2023/08/04 10:14:01;;;;;;;;;;;;;;;19.61;93.72;96008.72;5063791;28;20251;-69
2023/08/04 10:16:35;;;;;;;;;;;;;;;19.48;94.16;96004.91;5064409;28;19947;-71
2023/08/04 10:19:02;;;;;;;;;;;;;;;19.38;98.35;96027.09;5065118;28;19941;-72
2023/08/04 10:21:31;;;;;;;;;;;;;;;19.32;97.60;96016.78;5068111;28;20239;-71
2023/08/04 10:23:57;;;;;;;;;;;;;;;19.27;98.05;96018.44;5067996;28;19937;-72
2023/08/04 10:26:23;;;;;;;;;;;;;;;19.23;100.00;96035.25;5067983;28;19972;-71
2023/08/04 10:28:58;;;;;;;;;;;;;;;19.19;100.00;96039.53;5067589;28;19955;-72
2023/08/04 10:31:39;;;;;;;;;;;;;;;19.15;100.00;96028.69;5068080;28;19953;-68
2023/08/04 10:34:15;;;;;;;;;;;;;;;19.14;100.00;96032.41;5068345;28;19940;-70
2023/08/04 10:37:00;;;;;;;;;;;;;;;19.13;99.16;96025.53;5067704;28;20105;-72
2023/08/04 10:39:30;;;;;;;;;;;;;;;19.14;99.75;96029.75;5067749;28;19941;-71
2023/08/04 10:41:56;;;;;;;;;;;;;;;19.30;100.00;96048.19;5068125;28;19936;-71
2023/08/04 10:44:27;;;;;;;;;;;;;;;19.53;100.00;96041.28;5067902;28;20126;-71
2023/08/04 10:46:58;;;;;;;;;;;;;;;19.72;96.33;96017.38;5068140;28;19935;-71
2023/08/04 10:49:24;;;;;;;;;;;;;;;19.68;100.00;96044.53;5068304;28;19934;-69
2023/08/04 10:51:52;;;;;;;;;;;;;;;19.56;97.68;96044.16;5067510;28;19979;-69
2023/08/04 10:54:18;;;;;;;;;;;;;;;19.35;96.90;96043.59;5067451;28;19944;-72
2023/08/04 10:56:45;;;;;;;;;;;;;;;19.16;97.68;96045.44;5067323;28;19964;-72
2023/08/04 10:59:11;;;;;;;;;;;;;;;18.93;96.45;96061.06;5067264;28;20264;-72
2023/08/04 11:01:37;;;;;;;;;;;;;;;18.85;100.00;96078.38;5067865;28;19943;-72
2023/08/04 11:04:03;;;;;;;;;;;;;;;18.78;99.96;96064.66;5067294;28;19944;-72
2023/08/04 11:06:29;;;;;;;;;;;;;;;18.70;100.00;96069.75;5067520;28;19942;-72
2023/08/04 11:08:55;;;;;;;;;;;;;;;18.62;99.44;96063.94;5067113;28;19939;-72
2023/08/04 11:11:21;;;;;;;;;;;;;;;18.60;100.00;96076.72;5067205;28;19953;-68
2023/08/04 11:13:47;;;;;;;;;;;;;;;18.63;100.00;96070.84;5066777;28;19942;-69
2023/08/04 11:16:16;;;;;;;;;;;;;;;18.72;100.00;96084.34;5067599;28;19941;-69
2023/08/04 11:18:42;;;;;;;;;;;;;;;18.76;97.50;96052.69;5067562;28;19942;-70
2023/08/04 11:21:08;;;;;;;;;;;;;;;18.76;94.24;96047.38;5066992;28;19942;-68
2023/08/04 11:23:34;;;;;;;;;;;;;;;18.81;99.77;96068.59;5066889;28;19947;-68
2023/08/04 11:26:00;;;;;;;;;;;;;;;18.78;100.00;96064.66;5066829;28;19940;-68
2023/08/04 11:28:26;;;;;;;;;;;;;;;18.77;100.00;96070.22;5066884;28;19948;-70
2023/08/04 11:31:05;;;;;;;;;;;;;;;18.78;100.00;96071.81;5066142;28;20158;-68
2023/08/04 11:33:31;;;;;;;;;;;;;;;18.81;100.00;96077.38;5067283;28;19936;-68
2023/08/04 11:35:59;;;;;;;;;;;;;;;18.88;100.00;96073.59;5066590;28;20129;-67
2023/08/04 11:38:25;;;;;;;;;;;;;;;19.02;100.00;96072.69;5066586;28;19938;-68
2023/08/04 11:40:54;;;;;;;;;;;;;;;19.15;100.00;96073.06;5067064;28;19946;-67
2023/08/04 11:43:21;;;;;;;;;;;;;;;19.30;100.00;96075.59;5066507;28;19945;-67
2023/08/04 11:45:48;;;;;;;;;;;;;;;19.38;100.00;96077.63;5066452;28;19945;-71
2023/08/04 11:48:14;;;;;;;;;;;;;;;19.41;100.00;96058.44;5066469;28;20008;-69
2023/08/04 11:50:40;;;;;;;;;;;;;;;19.34;100.00;96075.78;5066604;28;19955;-70
2023/08/04 11:53:06;;;;;;;;;;;;;;;19.23;100.00;96077.78;5066350;28;19948;-69
2023/08/04 11:55:35;;;;;;;;;;;;;;;19.11;100.00;96091.47;5066351;28;20199;-69
2023/08/04 11:58:01;;;;;;;;;;;;;;;19.03;100.00;96092.06;5066122;28;19978;-70
2023/08/04 12:00:33;;;;;;;;;;;;;;;18.99;100.00;96086.50;5066209;28;20020;-69
2023/08/04 12:03:01;;;;;;;;;;;;;;;18.91;100.00;96079.16;5066157;28;19985;-71
2023/08/04 12:05:30;;;;;;;;;;;;;;;18.84;100.00;96079.47;5081689;28;19937;-70
2023/08/04 12:08:08;;;;;;;;;;;;;;;18.83;100.00;96080.53;5066033;28;19941;-71
2023/08/04 12:10:34;;;;;;;;;;;;;;;18.90;100.00;96064.28;5066518;28;19962;-70
2023/08/04 12:13:00;;;;;;;;;;;;;;;18.93;100.00;96060.28;5065904;28;20009;-71
2023/08/04 12:15:26;;;;;;;;;;;;;;;19.08;100.00;96054.81;5066425;28;19940;-70
2023/08/04 12:17:52;;;;;;;;;;;;;;;19.45;100.00;96038.19;5066255;28;19939;-70
2023/08/04 12:20:18;;;;;;;;;;;;;;;19.73;100.00;96032.28;5065849;28;19941;-70
2023/08/04 12:22:44;;;;;;;;;;;;;;;20.03;100.00;96049.69;5065838;28;19952;-68
2023/08/04 12:25:11;;;;;;;;;;;;;;;20.25;100.00;96043.78;5065798;28;19943;-69
2023/08/04 12:27:37;;;;;;;;;;;;;;;20.41;98.32;96053.13;5065697;28;19942;-70
2023/08/04 12:30:04;;;;;;;;;;;;;;;20.47;99.34;96064.47;5065623;28;19956;-69
2023/08/04 12:32:30;;;;;;;;;;;;;;;20.31;98.68;96069.28;5065622;28;19942;-69
2023/08/04 12:34:57;;;;;;;;;;;;;;;20.06;97.81;96071.22;5066340;28;19982;-69
2023/08/04 12:37:23;;;;;;;;;;;;;;;19.81;99.91;96092.84;5065519;28;19939;-69